Wanze, Belgium
Current Conditions -  °F | °C
As of 3:20 PM on Saturday 25 Oct 2014 (Local Time) from EBLG Reporting Station
Drizzle Drizzle  
Wind Chill: 55°   Ceiling: 600
Heat Index: 55°   Visibility: 2.6mi
Dew Point: 54°   Wind: 9mph
Humidity: 94%   Direction: 240°WSW
Pressure: 30.12"   Gusts: NA
Location:  50.54°N, 5.21°E
Report Text: EBLG 251320Z 24008KT 4200 -DZ SCT003 BKN006 13/12 Q1020 TEMPO 3000 -DZ BKN005
Loading
Personal Weather Stations






























Interactive Weather Map
Tropical Storm Tracking
New forecast layout! Learn more

10-Day Weather Forecast

Advertisements
Track Severe Weather on mobile